Time;durP1;ratioP1;P1;durP2;ratioP2;P2;SDS_P1;SDS_P2;PMS_P1;PMS_P2;Temp;Humidity;BMP_temperature;BMP_pressure;BME280_temperature;BME280_humidity;BME280_pressure;Samples;Min_cycle;Max_cycle;Signal;HPM_P1;HPM_P2
2022/09/24 00:00:10;;;;;;;4.67;3.33;;;;;;;10.47;100.00;101769.72;2105246;28;20190;-62
2022/09/24 00:01:14;;;;;;;4.83;3.30;;;;;;;10.46;100.00;101776.44;2104933;28;20269;-62
2022/09/24 00:02:15;;;;;;;4.80;3.40;;;;;;;10.47;100.00;101764.16;2105028;28;20506;-62
2022/09/24 00:03:16;;;;;;;5.87;3.30;;;;;;;10.47;100.00;101778.03;2104474;28;20446;-62
2022/09/24 00:04:17;;;;;;;4.90;3.13;;;;;;;10.47;100.00;101769.72;2105018;28;20232;-62
2022/09/24 00:05:18;;;;;;;4.13;2.90;;;;;;;10.44;100.00;101774.09;2103764;28;20950;-62
2022/09/24 00:06:19;;;;;;;4.63;3.50;;;;;;;10.45;100.00;101788.75;2104893;28;20784;-62
2022/09/24 00:07:19;;;;;;;5.53;3.30;;;;;;;10.27;100.00;101744.50;2104776;28;20217;-62
2022/09/24 00:08:20;;;;;;;3.57;2.80;;;;;;;10.44;100.00;101770.50;2104424;28;20181;-62
2022/09/24 00:09:20;;;;;;;5.30;3.03;;;;;;;10.43;100.00;101768.94;2104757;28;20182;-62
2022/09/24 00:10:21;;;;;;;3.50;3.03;;;;;;;10.43;100.00;101766.97;2104224;28;20195;-62
2022/09/24 00:11:25;;;;;;;4.93;3.40;;;;;;;10.44;100.00;101763.00;2104988;28;20185;-62
2022/09/24 00:12:26;;;;;;;3.90;3.28;;;;;;;9.80;100.00;101664.75;2104841;28;20443;-62
2022/09/24 00:13:27;;;;;;;5.03;3.03;;;;;;;10.44;100.00;101773.28;2104895;28;20646;-62
2022/09/24 00:14:27;;;;;;;5.33;3.20;;;;;;;10.45;100.00;101769.34;2104624;28;20780;-62
2022/09/24 00:15:28;;;;;;;3.97;3.20;;;;;;;10.47;100.00;101770.50;2104839;28;20187;-62
2022/09/24 00:16:31;;;;;;;3.27;2.97;;;;;;;10.45;100.00;101763.78;2103964;28;20185;-62
2022/09/24 00:17:32;;;;;;;3.87;3.50;;;;;;;10.47;100.00;101767.75;2104386;28;20674;-62
2022/09/24 00:18:32;;;;;;;5.77;3.40;;;;;;;10.47;100.00;101766.94;2104836;28;20795;-62
2022/09/24 00:19:33;;;;;;;3.63;3.27;;;;;;;10.48;100.00;101762.97;2104609;28;20469;-62
2022/09/24 00:20:34;;;;;;;4.43;3.43;;;;;;;10.43;100.00;101769.75;2104980;28;20677;-62
2022/09/24 00:21:35;;;;;;;4.53;3.40;;;;;;;10.51;100.00;101762.19;2104281;28;20307;-62
2022/09/24 00:22:36;;;;;;;7.03;3.30;;;;;;;10.51;100.00;101762.94;2104741;28;20455;-62
2022/09/24 00:23:36;;;;;;;4.80;3.00;;;;;;;10.41;100.00;101744.41;2103778;28;20532;-62
2022/09/24 00:27:15;;;;;;;3.50;3.00;;;;;;;10.55;100.00;101760.94;2104942;28;20399;-62
2022/09/24 00:28:16;;;;;;;5.83;3.27;;;;;;;10.56;100.00;101758.97;2104209;28;20440;-62
2022/09/24 00:29:22;;;;;;;4.57;3.07;;;;;;;10.56;100.00;101762.53;2103433;28;20622;-62
2022/09/24 00:30:23;;;;;;;5.13;3.30;;;;;;;10.57;100.00;101763.31;2104916;28;20444;-62
2022/09/24 00:31:24;;;;;;;3.40;3.10;;;;;;;9.97;100.00;101665.84;2104545;28;20467;-62
2022/09/24 00:32:25;;;;;;;3.57;3.07;;;;;;;10.55;100.00;101763.72;2104681;28;20193;-62
2022/09/24 00:33:32;;;;;;;4.77;3.10;;;;;;;10.54;100.00;101753.84;2104664;28;20422;-62
2022/09/24 00:34:33;;;;;;;3.57;3.00;;;;;;;10.25;100.00;101721.16;2104485;28;20424;-62
2022/09/24 00:35:34;;;;;;;4.27;3.17;;;;;;;10.57;100.00;101747.50;2103739;28;20506;-62
2022/09/24 00:36:34;;;;;;;4.17;3.20;;;;;;;10.42;100.00;101725.78;2104729;28;20290;-62
2022/09/24 00:37:35;;;;;;;6.50;2.90;;;;;;;10.59;100.00;101756.19;2104324;28;20444;-62
2022/09/24 00:38:35;;;;;;;3.20;2.90;;;;;;;10.62;100.00;101760.13;2104785;28;20626;-62
2022/09/24 00:39:37;;;;;;;4.20;3.23;;;;;;;10.59;100.00;101758.16;2104374;28;20228;-62
2022/09/24 00:40:38;;;;;;;3.77;2.87;;;;;;;10.59;100.00;101756.19;2104794;28;20188;-62
2022/09/24 00:41:43;;;;;;;4.80;3.23;;;;;;;10.61;100.00;101753.00;2104756;28;20921;-62
2022/09/24 00:42:44;;;;;;;4.37;3.07;;;;;;;10.61;100.00;101753.00;2104797;28;20913;-62
2022/09/24 00:43:47;;;;;;;4.27;2.83;;;;;;;10.31;100.00;101702.91;2104783;28;20940;-62
2022/09/24 00:44:52;;;;;;;4.60;3.03;;;;;;;10.63;100.00;101753.38;2104098;28;20675;-62
2022/09/24 00:46:01;;;;;;;4.07;3.10;;;;;;;10.61;100.00;101758.56;2104509;28;20452;-62
2022/09/24 00:47:01;;;;;;;5.67;3.23;;;;;;;10.62;100.00;101760.13;2104342;28;20416;-62
2022/09/24 00:48:02;;;;;;;5.37;2.90;;;;;;;10.63;100.00;101758.94;2104132;28;20956;-62
2022/09/24 00:49:12;;;;;;;4.43;2.67;;;;;;;10.63;100.00;101759.72;2104895;28;20186;-62
2022/09/24 00:50:30;;;;;;;3.13;2.80;;;;;;;10.62;100.00;101755.38;2104762;28;20263;-62
2022/09/24 00:51:32;;;;;;;4.73;3.13;;;;;;;10.64;100.00;101754.97;2104871;28;20446;-62
2022/09/24 00:52:41;;;;;;;5.33;3.07;;;;;;;10.60;100.00;101754.22;2104678;28;20437;-62
2022/09/24 00:53:44;;;;;;;4.60;2.90;;;;;;;10.32;100.00;101702.50;2104893;28;20456;-62
2022/09/24 00:54:45;;;;;;;3.97;2.80;;;;;;;10.65;100.00;101753.78;2104626;28;20475;-62
2022/09/24 00:55:53;;;;;;;4.43;2.50;;;;;;;10.66;100.00;101749.81;2104785;28;20448;-62
2022/09/24 00:56:57;;;;;;;3.83;2.80;;;;;;;10.69;100.00;101762.84;2104806;28;20427;-62
2022/09/24 00:58:01;;;;;;;4.17;3.07;;;;;;;10.68;100.00;101750.97;2104178;28;20539;-62
2022/09/24 00:59:05;;;;;;;3.43;2.87;;;;;;;10.69;100.00;101747.00;2104712;28;20929;-62
2022/09/24 01:00:06;;;;;;;4.07;2.97;;;;;;;10.21;100.00;101671.31;2104558;28;20434;-62
2022/09/24 01:01:07;;;;;;;5.60;2.97;;;;;;;10.73;100.00;101761.66;2104594;28;20949;-62
2022/09/24 01:02:08;;;;;;;4.07;3.10;;;;;;;10.67;100.00;101734.75;2104602;28;20791;-62
2022/09/24 01:03:14;;;;;;;4.70;2.93;;;;;;;10.76;100.00;101746.19;2104184;28;20182;-62
2022/09/24 01:04:19;;;;;;;4.57;2.83;;;;;;;10.43;100.00;101691.34;2096717;28;20179;-62
2022/09/24 01:05:20;;;;;;;4.10;3.20;;;;;;;10.76;100.00;101746.94;2103601;28;20412;-62
2022/09/24 01:06:22;;;;;;;3.93;2.83;;;;;;;10.78;100.00;101741.00;2104903;28;20224;-62
2022/09/24 01:07:23;;;;;;;6.73;3.03;;;;;;;10.77;100.00;101748.53;2104285;28;20183;-62
2022/09/24 01:08:24;;;;;;;5.27;3.13;;;;;;;10.80;100.00;101753.28;2104525;28;20868;-62
2022/09/24 01:09:26;;;;;;;4.70;2.90;;;;;;;10.75;100.00;101728.75;2103541;28;20431;-62
2022/09/24 01:10:47;;;;;;;5.70;3.30;;;;;;;10.79;100.00;101748.94;2104721;28;20194;-62
2022/09/24 01:12:01;;;;;;;5.07;3.20;;;;;;;10.80;100.00;101746.94;2104685;28;20818;-62
2022/09/24 01:13:16;;;;;;;6.10;3.07;;;;;;;10.76;100.00;101735.88;2104701;28;20454;-62
2022/09/24 01:14:46;;;;;;;4.57;3.27;;;;;;;10.80;100.00;101739.41;2104283;28;20939;-62
2022/09/24 01:16:01;;;;;;;5.07;3.13;;;;;;;10.82;100.00;101741.78;2103613;28;20493;-62
2022/09/24 01:17:24;;;;;;;6.13;3.13;;;;;;;10.79;100.00;101734.25;2104580;28;20523;-62
2022/09/24 01:18:39;;;;;;;5.30;3.07;;;;;;;10.78;100.00;101735.47;2104341;28;20443;-62
2022/09/24 01:19:54;;;;;;;4.33;2.97;;;;;;;10.61;100.00;101716.97;2104346;28;20462;-61
2022/09/24 01:21:09;;;;;;;5.40;2.87;;;;;;;10.60;100.00;101709.84;2103999;28;20435;-62
2022/09/24 01:22:41;;;;;;;3.80;2.93;;;;;;;10.68;100.00;101733.53;2104661;28;20447;-62
2022/09/24 01:23:44;;;;;;;3.63;2.63;;;;;;;10.69;100.00;101733.16;2104516;28;20444;-62
2022/09/24 01:24:47;;;;;;;4.80;2.77;;;;;;;10.68;100.00;101728.81;2104761;28;20748;-62
2022/09/24 01:26:09;;;;;;;3.80;3.00;;;;;;;10.64;100.00;101733.59;2104136;28;20463;-62
2022/09/24 01:27:21;;;;;;;4.50;2.70;;;;;;;10.63;100.00;101732.00;2103953;28;20427;-62
2022/09/24 01:29:04;;;;;;;4.83;2.70;;;;;;;10.63;100.00;101726.47;2104164;28;20419;-62
2022/09/24 01:30:09;;;;;;;3.93;2.80;;;;;;;9.91;100.00;101623.16;2104038;28;20838;-62
2022/09/24 01:31:18;;;;;;;4.43;2.75;;;;;;;10.53;100.00;101724.53;2103928;28;20532;-62
2022/09/24 01:32:32;;;;;;;5.20;3.13;;;;;;;10.53;100.00;101723.75;2104049;28;20206;-62
2022/09/24 01:33:35;;;;;;;5.63;3.10;;;;;;;10.51;100.00;101721.38;2106000;28;20930;-62
2022/09/24 01:34:43;;;;;;;4.67;2.67;;;;;;;10.06;100.00;101657.94;2105231;28;20607;-62
2022/09/24 01:35:50;;;;;;;5.18;2.83;;;;;;;9.91;100.00;101645.31;2105945;28;20562;-62
2022/09/24 01:36:52;;;;;;;4.10;3.08;;;;;;;10.00;100.00;101665.06;2106194;28;20950;-62
2022/09/24 01:38:01;;;;;;;4.00;2.63;;;;;;;10.38;100.00;101728.59;2105604;28;20189;-62
2022/09/24 01:39:05;;;;;;;6.07;3.20;;;;;;;10.37;100.00;101727.03;2106249;28;20223;-62
2022/09/24 01:40:08;;;;;;;5.20;3.50;;;;;;;10.35;100.00;101725.84;2104647;28;20203;-62
2022/09/24 01:41:10;;;;;;;4.53;3.33;;;;;;;10.34;100.00;101725.03;2105862;28;20187;-62
2022/09/24 01:42:13;;;;;;;5.25;3.28;;;;;;;10.34;100.00;101732.56;2105938;28;20184;-62
2022/09/24 01:43:15;;;;;;;4.07;3.10;;;;;;;9.59;100.00;101612.22;2106036;28;20188;-62
2022/09/24 01:44:17;;;;;;;3.33;2.70;;;;;;;10.32;100.00;101727.44;2104962;28;20214;-62
2022/09/24 01:45:18;;;;;;;6.05;3.20;;;;;;;10.30;100.00;101729.81;2106123;28;20200;-62
2022/09/24 01:46:38;;;;;;;3.97;2.85;;;;;;;10.30;100.00;101724.28;2105991;28;20193;-62
2022/09/24 01:47:40;;;;;;;4.93;3.10;;;;;;;10.28;100.00;101723.09;2104688;28;20174;-62
2022/09/24 01:48:40;;;;;;;4.53;3.20;;;;;;;10.26;100.00;101729.03;2106019;28;20185;-62
2022/09/24 01:49:41;;;;;;;3.70;3.10;;;;;;;10.20;100.00;101729.88;2105700;28;20476;-62
2022/09/24 01:50:57;;;;;;;5.47;3.10;;;;;;;10.17;100.00;101717.63;2106034;28;20663;-62
2022/09/24 01:52:02;;;;;;;4.57;2.83;;;;;;;10.22;100.00;101744.91;2106097;28;20201;-62
2022/09/24 01:53:11;;;;;;;3.33;2.90;;;;;;;10.21;100.00;101731.44;2105816;28;20442;-62
2022/09/24 01:54:20;;;;;;;6.53;2.70;;;;;;;10.22;100.00;101738.56;2106102;28;20808;-62
2022/09/24 01:55:25;;;;;;;2.80;2.50;;;;;;;10.17;100.00;101727.91;2105887;28;20434;-62
2022/09/24 01:56:37;;;;;;;3.40;2.83;;;;;;;10.17;100.00;101727.91;2105752;28;20451;-62
2022/09/24 01:57:43;;;;;;;3.27;2.60;;;;;;;10.19;100.00;101720.00;2105457;28;20193;-62
2022/09/24 01:59:03;;;;;;;5.87;2.83;;;;;;;10.21;100.00;101748.06;2105873;28;20458;-62
2022/09/24 02:00:09;;;;;;;4.37;2.87;;;;;;;10.22;100.00;101733.03;2105758;28;20726;-62
2022/09/24 02:01:16;;;;;;;5.37;2.87;;;;;;;10.17;100.00;101738.97;2105862;28;20456;-62
2022/09/24 02:02:19;;;;;;;4.27;2.90;;;;;;;10.09;100.00;101734.69;2105999;28;20808;-62
2022/09/24 02:03:26;;;;;;;4.30;3.00;;;;;;;10.06;100.00;101743.78;2105936;28;20526;-62
2022/09/24 02:04:29;;;;;;;3.17;2.80;;;;;;;10.05;100.00;101740.22;2105833;28;20485;-62
2022/09/24 02:05:35;;;;;;;4.43;3.15;;;;;;;9.99;100.00;101741.03;2105764;28;20435;-62
2022/09/24 02:06:43;;;;;;;4.40;2.70;;;;;;;10.02;100.00;101745.75;2105921;28;20305;-62
2022/09/24 02:08:00;;;;;;;3.30;2.95;;;;;;;9.99;100.00;101736.25;2105334;28;20722;-62
2022/09/24 02:09:01;;;;;;;14.90;3.57;;;;;;;9.93;100.00;101739.84;2105854;28;20194;-62
2022/09/24 02:10:02;;;;;;;8.17;3.70;;;;;;;9.87;100.00;101727.59;2105510;28;20438;-62
2022/09/24 02:11:10;;;;;;;8.57;3.40;;;;;;;9.91;100.00;101736.69;2105817;28;20270;-62
2022/09/24 02:12:16;;;;;;;5.95;3.50;;;;;;;9.90;100.00;101735.88;2105755;28;20275;-62
2022/09/24 02:13:23;;;;;;;7.28;3.70;;;;;;;9.89;100.00;101741.84;2105814;28;20179;-62
2022/09/24 02:14:25;;;;;;;5.57;3.47;;;;;;;9.87;100.00;101746.97;2105824;28;20204;-62
2022/09/24 02:15:39;;;;;;;5.70;3.30;;;;;;;9.33;100.00;101654.22;2105749;28;20186;-62
2022/09/24 02:16:47;;;;;;;6.63;3.00;;;;;;;9.84;100.00;101751.34;2105767;28;20414;-62
2022/09/24 02:17:53;;;;;;;6.10;3.25;;;;;;;9.87;100.00;101752.50;2105281;28;20185;-62
2022/09/24 02:18:56;;;;;;;6.07;2.97;;;;;;;9.87;100.00;101747.78;2105239;28;20179;-62
2022/09/24 02:20:01;;;;;;;4.53;3.30;;;;;;;9.87;100.00;101747.78;2105314;28;20417;-62
2022/09/24 02:21:07;;;;;;;4.70;2.97;;;;;;;9.60;100.00;101698.81;2105671;28;20179;-62
2022/09/24 02:22:11;;;;;;;4.40;2.85;;;;;;;9.87;100.00;101753.31;2104867;28;20171;-62
2022/09/24 02:23:14;;;;;;;4.00;2.83;;;;;;;9.83;100.00;101738.69;2105925;28;20188;-62
2022/09/24 02:24:19;;;;;;;6.00;3.20;;;;;;;9.86;100.00;101748.97;2105922;28;20194;-62
2022/09/24 02:25:28;;;;;;;4.80;3.03;;;;;;;9.88;100.00;101748.56;2105084;28;20185;-62
2022/09/24 02:26:29;;;;;;;3.83;2.67;;;;;;;9.38;100.00;101673.19;2105790;28;20191;-62
2022/09/24 02:27:29;;;;;;;3.90;2.73;;;;;;;9.85;100.00;101752.13;2104127;28;20268;-62
2022/09/24 02:28:32;;;;;;;3.77;3.07;;;;;;;9.85;100.00;101750.13;2105661;28;20706;-62
2022/09/24 02:29:32;;;;;;;3.83;2.80;;;;;;;9.00;100.00;101615.97;2105081;28;20270;-62
2022/09/24 02:30:40;;;;;;;5.07;3.20;;;;;;;9.84;100.00;101748.56;2105736;28;20496;-62
2022/09/24 02:31:48;;;;;;;5.03;2.80;;;;;;;9.87;100.00;101745.00;2104792;28;20241;-62
2022/09/24 02:32:49;;;;;;;4.18;3.13;;;;;;;8.97;100.00;101600.19;2105756;28;20192;-62
2022/09/24 02:35:11;;;;;;;3.80;3.00;;;;;;;9.91;100.00;101748.56;2105600;28;20187;-62
2022/09/24 02:36:12;;;;;;;4.60;3.10;;;;;;;9.95;100.00;101759.63;2105149;28;20190;-62
2022/09/24 02:37:14;;;;;;;6.07;3.10;;;;;;;9.95;100.00;101757.63;2105592;28;20285;-62
2022/09/24 02:38:15;;;;;;;5.43;2.80;;;;;;;9.95;100.00;101752.09;2104014;28;20233;-62
2022/09/24 02:39:16;;;;;;;3.78;2.97;;;;;;;9.98;100.00;101756.03;2104744;28;20186;-62
2022/09/24 02:40:17;;;;;;;7.47;3.10;;;;;;;9.99;100.00;101750.09;2105085;28;20202;-62
2022/09/24 02:41:22;;;;;;;6.13;2.77;;;;;;;9.40;100.00;101661.72;2105261;28;20573;-62
2022/09/24 02:42:23;;;;;;;4.85;3.40;;;;;;;9.99;100.00;101763.19;2104992;28;20187;-62
2022/09/24 02:43:24;;;;;;;4.57;2.97;;;;;;;9.53;100.00;101676.72;2104837;28;20188;-61
2022/09/24 02:44:25;;;;;;;5.15;3.03;;;;;;;9.98;100.00;101756.84;2105717;28;20195;-62
2022/09/24 02:45:26;;;;;;;4.60;2.90;;;;;;;9.99;100.00;101752.88;2105427;28;20200;-62
2022/09/24 02:46:26;;;;;;;5.93;3.20;;;;;;;9.92;100.00;101750.13;2105601;28;20230;-62
2022/09/24 02:47:27;;;;;;;7.40;3.03;;;;;;;9.91;100.00;101761.59;2104691;28;20203;-62
2022/09/24 02:48:28;;;;;;;4.00;3.15;;;;;;;9.92;100.00;101750.13;2105415;28;20190;-62
2022/09/24 02:49:28;;;;;;;4.90;3.50;;;;;;;9.93;100.00;101753.69;2105296;28;20751;-62
2022/09/24 02:50:29;;;;;;;3.37;2.70;;;;;;;9.94;100.00;101749.75;2104484;28;20189;-62
2022/09/24 02:51:29;;;;;;;5.80;3.07;;;;;;;9.94;100.00;101758.06;2105680;28;20282;-62
2022/09/24 02:52:30;;;;;;;3.73;3.20;;;;;;;9.93;100.00;101759.22;2105380;28;20203;-62
2022/09/24 02:53:31;;;;;;;4.30;2.90;;;;;;;9.93;100.00;101759.22;2105572;28;20220;-62
2022/09/24 02:54:32;;;;;;;6.65;3.60;;;;;;;9.87;100.00;101764.41;2104888;28;20194;-62
2022/09/24 02:55:32;;;;;;;6.17;3.50;;;;;;;9.33;100.00;101679.13;2105377;28;20775;-61
2022/09/24 02:56:33;;;;;;;5.07;3.30;;;;;;;9.89;100.00;101758.47;2105303;28;20195;-62
2022/09/24 02:57:34;;;;;;;5.37;3.40;;;;;;;9.90;100.00;101762.81;2105022;28;20254;-62
2022/09/24 02:58:36;;;;;;;4.50;3.27;;;;;;;9.45;100.00;101694.50;2105599;28;20568;-62
2022/09/24 02:59:36;;;;;;;5.50;2.80;;;;;;;9.92;100.00;101763.97;2105181;28;20632;-62
2022/09/24 03:00:37;;;;;;;5.60;3.20;;;;;;;9.92;100.00;101763.97;2104804;28;20453;-62
2022/09/24 03:01:38;;;;;;;5.53;2.90;;;;;;;9.93;100.00;101768.31;2105449;28;20189;-62
2022/09/24 03:02:38;;;;;;;4.27;3.23;;;;;;;9.91;100.00;101759.63;2105268;28;20206;-62
2022/09/24 03:03:38;;;;;;;4.73;3.10;;;;;;;9.84;100.00;101753.34;2105434;28;20649;-62
2022/09/24 03:04:39;;;;;;;4.90;3.40;;;;;;;9.83;100.00;101762.81;2104945;28;20219;-62
2022/09/24 03:05:39;;;;;;;3.93;3.53;;;;;;;9.84;100.00;101759.63;2105248;28;20208;-62
2022/09/24 03:06:40;;;;;;;4.20;3.20;;;;;;;9.83;100.00;101768.34;2105229;28;20192;-62
2022/09/24 03:07:42;;;;;;;6.23;3.67;;;;;;;9.83;100.00;101769.13;2104272;28;21043;-62
2022/09/24 03:08:43;;;;;;;4.27;3.20;;;;;;;9.86;100.00;101768.34;2105542;28;20225;-62
2022/09/24 03:09:43;;;;;;;5.77;3.20;;;;;;;9.82;100.00;101764.81;2104825;28;20431;-62
2022/09/24 03:10:45;;;;;;;3.93;3.30;;;;;;;9.80;100.00;101766.38;2105446;28;20245;-62
2022/09/24 03:11:46;;;;;;;5.10;3.33;;;;;;;9.82;100.00;101762.03;2104690;28;20688;-62
2022/09/24 03:12:46;;;;;;;5.27;3.10;;;;;;;8.89;100.00;101614.41;2105342;28;20446;-62
2022/09/24 03:13:47;;;;;;;5.07;3.40;;;;;;;9.83;100.00;101765.56;2104149;28;20188;-62
2022/09/24 03:14:48;;;;;;;3.47;2.97;;;;;;;9.80;100.00;101772.72;2105263;28;20192;-62
2022/09/24 03:15:48;;;;;;;6.07;3.37;;;;;;;9.80;100.00;101764.41;2105216;28;20446;-62
2022/09/24 03:16:49;;;;;;;3.73;2.93;;;;;;;9.81;100.00;101767.97;2105235;28;20205;-62
2022/09/24 03:17:49;;;;;;;6.47;3.60;;;;;;;9.83;100.00;101766.38;2104868;28;20193;-62
2022/09/24 03:18:49;;;;;;;4.97;3.57;;;;;;;9.81;100.00;101768.75;2104430;28;20193;-62
2022/09/24 03:19:50;;;;;;;6.00;3.87;;;;;;;9.62;100.00;101735.19;2104962;28;20197;-62
2022/09/24 03:20:58;;;;;;;6.93;3.60;;;;;;;9.84;100.00;101767.19;2105223;28;20276;-62
2022/09/24 03:21:58;;;;;;;7.88;3.50;;;;;;;9.84;100.00;101773.47;2105382;28;20559;-62
2022/09/24 03:22:59;;;;;;;8.97;3.50;;;;;;;9.83;100.00;101766.38;2104542;28;20249;-62
2022/09/24 03:23:59;;;;;;;9.17;3.53;;;;;;;9.83;100.00;101769.13;2104489;28;20319;-62
2022/09/24 03:25:02;;;;;;;8.90;3.63;;;;;;;9.75;100.00;101780.63;2104618;28;20632;-62
2022/09/24 03:26:03;;;;;;;7.60;3.73;;;;;;;9.72;100.00;101773.13;2105011;28;20687;-62
2022/09/24 03:27:03;;;;;;;14.83;3.70;;;;;;;9.76;100.00;101771.94;2105367;28;20573;-62
2022/09/24 03:28:04;;;;;;;8.93;3.30;;;;;;;9.78;100.00;101768.78;2104380;28;20441;-62
2022/09/24 03:29:04;;;;;;;8.97;3.60;;;;;;;9.79;100.00;101773.13;2105072;28;20187;-63
2022/09/24 03:31:24;;;;;;;5.22;3.33;;;;;;;9.77;100.00;101765.22;2105189;28;20191;-62
2022/09/24 03:32:25;;;;;;;5.80;3.70;;;;;;;9.74;100.00;101765.22;2105088;28;20278;-62
2022/09/24 03:33:31;;;;;;;6.20;3.40;;;;;;;9.76;100.00;101769.16;2105181;28;20212;-62
2022/09/24 03:34:31;;;;;;;5.22;3.33;;;;;;;9.75;100.00;101773.13;2104170;28;20462;-62
2022/09/24 03:35:32;;;;;;;5.13;3.23;;;;;;;9.77;100.00;101770.75;2105027;28;20250;-63
2022/09/24 03:36:32;;;;;;;4.90;3.37;;;;;;;9.78;100.00;101774.31;2105129;28;20614;-63
2022/09/24 03:37:36;;;;;;;6.70;3.47;;;;;;;9.78;100.00;101766.78;2104620;28;20190;-63
2022/09/24 03:38:38;;;;;;;4.57;3.25;;;;;;;9.47;100.00;101725.31;2105344;28;20649;-63
2022/09/24 03:39:38;;;;;;;6.80;3.30;;;;;;;9.68;100.00;101759.28;2102878;28;20218;-63
2022/09/24 03:40:38;;;;;;;5.30;3.50;;;;;;;9.79;100.00;101770.34;2103977;28;20179;-63
2022/09/24 03:41:39;;;;;;;5.87;3.33;;;;;;;9.82;100.00;101777.84;2104549;28;20194;-62
2022/09/24 03:42:39;;;;;;;5.00;3.50;;;;;;;9.80;100.00;101769.16;2103532;28;20209;-62
2022/09/24 03:43:40;;;;;;;5.33;3.50;;;;;;;9.82;100.00;101769.53;2105185;28;20653;-62
2022/09/24 03:44:40;;;;;;;6.47;3.63;;;;;;;9.77;100.00;101775.47;2105029;28;20194;-62
2022/09/24 03:45:41;;;;;;;4.80;3.37;;;;;;;9.77;100.00;101770.75;2104986;28;20200;-63
2022/09/24 03:46:42;;;;;;;5.03;3.70;;;;;;;9.80;100.00;101769.97;2104893;28;20215;-63
2022/09/24 03:47:42;;;;;;;5.07;3.45;;;;;;;9.84;100.00;101775.47;2104776;28;20257;-62
2022/09/24 03:48:45;;;;;;;7.80;3.63;;;;;;;9.83;100.00;101782.19;2105190;28;20235;-62
2022/09/24 03:49:46;;;;;;;7.75;3.63;;;;;;;9.81;100.00;101779.03;2104788;28;20643;-63
2022/09/24 03:50:47;;;;;;;7.10;3.90;;;;;;;9.50;100.00;101733.66;2105073;28;20625;-62
2022/09/24 03:51:47;;;;;;;12.17;3.97;;;;;;;9.82;100.00;101789.72;2104944;28;20236;-63
2022/09/24 03:52:47;;;;;;;10.77;3.97;;;;;;;9.81;100.00;101790.91;2105118;28;20218;-62
2022/09/24 03:53:48;;;;;;;6.33;3.60;;;;;;;9.76;100.00;101787.75;2104986;28;20188;-62
2022/09/24 03:54:49;;;;;;;7.07;3.50;;;;;;;9.02;100.00;101681.94;2105171;28;20222;-62
2022/09/24 03:55:55;;;;;;;7.55;3.60;;;;;;;9.67;100.00;101792.91;2104348;28;20198;-62
2022/09/24 03:56:55;;;;;;;10.23;3.77;;;;;;;9.44;100.00;101762.88;2103914;28;20181;-62
2022/09/24 03:57:56;;;;;;;4.80;3.33;;;;;;;9.76;100.00;101796.06;2103853;28;20935;-62
2022/09/24 03:58:56;;;;;;;5.27;3.70;;;;;;;9.77;100.00;101792.09;2104958;28;20197;-62
2022/09/24 03:59:58;;;;;;;5.90;3.47;;;;;;;9.67;100.00;101815.84;2104571;28;20196;-62
2022/09/24 04:00:58;;;;;;;8.63;3.35;;;;;;;9.77;100.00;101795.66;2104963;28;20274;-62
2022/09/24 04:01:59;;;;;;;8.33;4.77;;;;;;;9.67;100.00;101770.75;2104944;28;20212;-62
2022/09/24 04:02:59;;;;;;;6.67;3.83;;;;;;;9.86;100.00;101798.00;2104890;28;20720;-62
2022/09/24 04:04:02;;;;;;;5.37;3.47;;;;;;;9.90;100.00;101794.03;2104979;28;20546;-62
2022/09/24 04:05:02;;;;;;;5.10;3.42;;;;;;;9.95;100.00;101790.84;2104698;28;20189;-63
2022/09/24 04:06:04;;;;;;;4.60;3.97;;;;;;;9.95;100.00;101793.63;2105006;28;20214;-62
2022/09/24 04:07:05;;;;;;;4.15;3.40;;;;;;;9.97;100.00;101790.47;2104830;28;20917;-62
2022/09/24 04:08:06;;;;;;;5.10;3.53;;;;;;;9.99;100.00;101799.19;2104437;28;20194;-62
2022/09/24 04:09:06;;;;;;;5.27;3.47;;;;;;;10.03;100.00;101792.44;2104702;28;20225;-62
2022/09/24 04:10:07;;;;;;;5.03;3.57;;;;;;;10.06;100.00;101799.19;2104705;28;20618;-62
2022/09/24 04:11:08;;;;;;;4.57;3.40;;;;;;;10.07;100.00;101798.78;2103757;28;20567;-62
2022/09/24 04:12:08;;;;;;;4.37;3.10;;;;;;;10.09;100.00;101798.38;2103844;28;20291;-62
2022/09/24 04:13:09;;;;;;;9.87;3.77;;;;;;;10.09;100.00;101795.63;2104908;28;20186;-62
2022/09/24 04:14:09;;;;;;;9.20;4.07;;;;;;;10.10;100.00;101833.97;2104250;28;20196;-62
2022/09/24 04:15:10;;;;;;;6.07;4.00;;;;;;;9.47;100.00;101705.97;2104479;28;20642;-62
2022/09/24 04:16:10;;;;;;;7.13;4.13;;;;;;;10.01;100.00;101797.59;2104869;28;20275;-62
2022/09/24 04:17:11;;;;;;;6.53;4.00;;;;;;;10.08;100.00;101805.91;2105005;28;20270;-62
2022/09/24 04:18:11;;;;;;;7.07;4.30;;;;;;;10.12;100.00;101800.34;2104506;28;20207;-62
2022/09/24 04:19:15;;;;;;;7.30;3.80;;;;;;;10.08;100.00;101796.78;2104749;28;20198;-62
2022/09/24 04:20:20;;;;;;;8.50;4.18;;;;;;;10.08;100.00;101802.31;2104725;28;20194;-62
2022/09/24 04:21:21;;;;;;;5.80;3.70;;;;;;;10.08;100.00;101803.13;2104984;28;20834;-62
2022/09/24 04:22:21;;;;;;;7.30;4.27;;;;;;;10.10;100.00;101799.97;2104729;28;20569;-62
2022/09/24 04:23:21;;;;;;;7.30;4.10;;;;;;;10.14;100.00;101801.53;2104919;28;20183;-62
2022/09/24 04:24:22;;;;;;;5.90;4.03;;;;;;;10.15;100.00;101803.09;2105128;28;20182;-62
2022/09/24 04:25:24;;;;;;;7.07;4.50;;;;;;;9.65;100.00;101720.56;2105106;28;20242;-62
2022/09/24 04:26:25;;;;;;;5.80;4.27;;;;;;;10.17;100.00;101803.50;2104889;28;20196;-62
2022/09/24 04:27:25;;;;;;;7.10;5.10;;;;;;;9.97;100.00;101799.56;2104508;28;20986;-62
2022/09/24 04:28:25;;;;;;;6.77;4.30;;;;;;;10.08;100.00;101807.88;2104784;28;20281;-62
2022/09/24 04:29:26;;;;;;;7.40;4.10;;;;;;;10.11;100.00;101807.88;2104427;28;20197;-62
2022/09/24 04:30:27;;;;;;;7.27;4.70;;;;;;;10.12;100.00;101809.44;2104940;28;20227;-62
2022/09/24 04:31:29;;;;;;;8.87;4.63;;;;;;;10.14;100.00;101800.75;2104782;28;20192;-62
2022/09/24 04:32:29;;;;;;;10.77;4.77;;;;;;;10.15;100.00;101800.31;2103629;28;20432;-62
2022/09/24 04:33:29;;;;;;;10.77;4.47;;;;;;;10.14;100.00;101800.75;2104314;28;20476;-62
2022/09/24 04:34:30;;;;;;;8.63;4.17;;;;;;;10.12;100.00;101800.34;2103977;28;20248;-62
2022/09/24 04:35:34;;;;;;;10.07;4.70;;;;;;;10.13;100.00;101802.72;2104632;28;20642;-62
2022/09/24 04:36:34;;;;;;;8.23;3.97;;;;;;;10.17;100.00;101799.94;2104897;28;20200;-62
2022/09/24 04:37:35;;;;;;;4.97;4.00;;;;;;;10.18;100.00;101807.03;2104263;28;20422;-62
2022/09/24 04:38:36;;;;;;;5.73;4.03;;;;;;;10.19;100.00;101798.34;2104761;28;20200;-62
2022/09/24 04:39:36;;;;;;;4.97;3.83;;;;;;;10.18;100.00;101794.00;2104415;28;20458;-62
2022/09/24 04:40:38;;;;;;;7.47;4.27;;;;;;;10.13;100.00;101799.94;2104756;28;20189;-62
2022/09/24 04:41:39;;;;;;;11.30;4.47;;;;;;;10.16;100.00;101803.88;2104752;28;20270;-62
2022/09/24 04:42:40;;;;;;;13.70;4.80;;;;;;;10.20;100.00;101802.69;2104603;28;20488;-63
2022/09/24 04:43:40;;;;;;;8.03;4.17;;;;;;;10.21;100.00;101811.78;2104902;28;20278;-63
2022/09/24 04:44:40;;;;;;;7.27;4.67;;;;;;;10.24;100.00;101806.22;2104845;28;20702;-63
2022/09/24 04:45:44;;;;;;;9.63;4.70;;;;;;;9.92;100.00;101750.13;2104855;28;20203;-62
2022/09/24 04:46:45;;;;;;;10.93;4.33;;;;;;;10.28;100.00;101800.66;2104689;28;20297;-62
2022/09/24 04:47:51;;;;;;;7.67;4.37;;;;;;;10.30;100.00;101803.84;2104346;28;20519;-62
2022/09/24 04:48:52;;;;;;;10.20;4.50;;;;;;;10.32;100.00;101805.03;2104832;28;20219;-63
2022/09/24 04:49:52;;;;;;;12.17;4.67;;;;;;;10.33;100.00;101803.81;2103320;28;20203;-62
2022/09/24 04:50:52;;;;;;;13.83;5.13;;;;;;;10.32;100.00;101807.00;2104802;28;20269;-62
2022/09/24 04:51:53;;;;;;;12.93;5.43;;;;;;;10.28;100.00;101815.31;2104650;28;20615;-62
2022/09/24 04:52:54;;;;;;;11.53;5.50;;;;;;;10.33;100.00;101805.78;2104835;28;20179;-63
2022/09/24 04:53:55;;;;;;;13.63;5.23;;;;;;;10.38;100.00;101811.72;2104516;28;20658;-62
2022/09/24 04:54:56;;;;;;;10.17;4.83;;;;;;;10.37;100.00;101798.25;2104875;28;20793;-62
2022/09/24 04:55:58;;;;;;;12.47;4.73;;;;;;;10.43;100.00;101808.53;2103584;28;20276;-63
2022/09/24 04:56:59;;;;;;;11.27;5.13;;;;;;;10.35;100.00;101797.88;2104745;28;20452;-63